Time;durP1;ratioP1;P1;durP2;ratioP2;P2;SDS_P1;SDS_P2;PMS_P1;PMS_P2;Temp;Humidity;BMP_temperature;BMP_pressure;BME280_temperature;BME280_humidity;BME280_pressure;Samples;Min_cycle;Max_cycle;Signal;HPM_P1;HPM_P2
2021/08/30 00:02:02;;;;;;;9.93;7.18;;;;;;;14.14;100.00;99614.88;5112918;28;20093;-71
2021/08/30 00:04:30;;;;;;;8.77;6.97;;;;;;;14.08;100.00;99610.03;5113205;28;20059;-71
2021/08/30 00:06:59;;;;;;;8.10;6.85;;;;;;;14.11;100.00;99619.66;5113101;28;20117;-71
2021/08/30 00:09:29;;;;;;;8.65;6.70;;;;;;;14.16;100.00;99617.44;5113397;28;20467;-71
2021/08/30 00:11:57;;;;;;;10.15;7.03;;;;;;;14.06;100.00;99622.72;5112948;28;20493;-71
2021/08/30 00:14:26;;;;;;;8.18;6.93;;;;;;;14.07;100.00;99624.41;5113090;28;20500;-71
2021/08/30 00:16:54;;;;;;;9.50;6.88;;;;;;;14.05;100.00;99626.38;5113041;28;20476;-71
2021/08/30 00:19:23;;;;;;;9.38;6.65;;;;;;;14.13;100.00;99618.56;5113142;28;20047;-70
2021/08/30 00:21:51;;;;;;;9.93;6.65;;;;;;;14.09;100.00;99625.16;5111633;28;20404;-71
2021/08/30 00:24:24;;;;;;;9.70;6.55;;;;;;;14.03;100.00;99623.00;5113374;28;20438;-70
2021/08/30 00:26:53;;;;;;;9.30;6.93;;;;;;;13.93;100.00;99622.06;5112835;28;20400;-71
2021/08/30 00:29:25;;;;;;;9.70;6.53;;;;;;;13.99;100.00;99624.22;5113041;28;20194;-69
2021/08/30 00:31:56;;;;;;;8.85;7.03;;;;;;;13.94;100.00;99618.41;5112744;28;20058;-71
2021/08/30 00:34:24;;;;;;;8.88;6.95;;;;;;;13.92;100.00;99620.38;5112871;28;20044;-70
2021/08/30 00:36:53;;;;;;;11.75;7.60;;;;;;;13.87;100.00;99626.09;5112724;28;20048;-71
2021/08/30 00:39:22;;;;;;;9.65;7.45;;;;;;;13.90;100.00;99635.72;5112851;28;20500;-71
2021/08/30 00:41:54;;;;;;;9.95;7.43;;;;;;;13.84;100.00;99629.03;5114952;28;20083;-77
2021/08/30 00:44:23;;;;;;;9.07;7.53;;;;;;;13.82;100.00;99630.16;5116847;28;20051;-72
2021/08/30 00:46:52;;;;;;;9.85;7.38;;;;;;;13.78;100.00;99634.06;5116464;28;20043;-73
2021/08/30 00:49:24;;;;;;;10.30;7.15;;;;;;;13.74;100.00;99626.28;5116972;28;20039;-72
2021/08/30 00:51:52;;;;;;;9.88;7.70;;;;;;;13.74;100.00;99636.16;5116596;28;20043;-72
2021/08/30 00:54:22;;;;;;;10.38;7.00;;;;;;;13.79;100.00;99630.41;5116603;28;20044;-71
2021/08/30 00:56:51;;;;;;;9.60;7.57;;;;;;;13.69;100.00;99631.16;5116502;28;20556;-75
2021/08/30 00:59:21;;;;;;;10.70;7.38;;;;;;;13.69;100.00;99630.31;5116867;28;20476;-72
2021/08/30 01:01:55;;;;;;;10.82;7.38;;;;;;;13.65;100.00;99632.41;5116410;28;20446;-72
2021/08/30 01:04:25;;;;;;;9.13;6.82;;;;;;;13.62;100.00;99635.34;5116431;28;20050;-72
2021/08/30 01:06:59;;;;;;;9.43;7.22;;;;;;;13.57;100.00;99632.19;5116282;28;20039;-71
2021/08/30 01:09:34;;;;;;;9.07;7.32;;;;;;;13.71;100.00;99621.19;5116590;28;20077;-72
2021/08/30 01:12:08;;;;;;;9.40;7.40;;;;;;;13.67;100.00;99622.41;5116292;28;20092;-71
2021/08/30 01:14:45;;;;;;;10.13;7.55;;;;;;;13.67;100.00;99617.03;5116254;28;20457;-71
2021/08/30 01:17:15;;;;;;;9.23;7.65;;;;;;;13.69;100.00;99620.44;5115905;28;20040;-72
2021/08/30 01:19:50;;;;;;;9.40;7.82;;;;;;;13.64;100.00;99624.50;5116146;28;20089;-72
2021/08/30 01:22:19;;;;;;;9.23;7.82;;;;;;;13.64;100.00;99627.16;5116459;28;20093;-70
2021/08/30 01:24:51;;;;;;;12.10;8.10;;;;;;;13.63;100.00;99626.31;5116196;28;20122;-72
2021/08/30 01:27:20;;;;;;;9.77;7.60;;;;;;;13.69;100.00;99635.66;5115971;28;20127;-70
2021/08/30 01:29:56;;;;;;;10.73;7.55;;;;;;;13.69;100.00;99633.00;5115905;28;20044;-70
2021/08/30 01:32:32;;;;;;;9.27;7.40;;;;;;;13.70;100.00;99627.53;5116306;28;20080;-70
2021/08/30 01:35:03;;;;;;;9.65;7.63;;;;;;;13.77;100.00;99627.00;5115742;28;20039;-70
2021/08/30 01:37:36;;;;;;;8.35;7.03;;;;;;;13.73;100.00;99632.63;5115937;28;20050;-69
2021/08/30 01:40:08;;;;;;;9.90;8.05;;;;;;;13.78;100.00;99623.34;5115568;28;20040;-70
2021/08/30 01:42:38;;;;;;;9.27;7.35;;;;;;;13.73;100.00;99629.94;5115826;28;20388;-69
2021/08/30 01:45:09;;;;;;;9.18;7.53;;;;;;;13.81;100.00;99628.47;5115322;28;20035;-70
2021/08/30 01:47:41;;;;;;;9.02;6.72;;;;;;;13.82;100.00;99630.16;5115744;28;20039;-70
2021/08/30 01:50:14;;;;;;;8.52;6.93;;;;;;;13.97;100.00;99632.38;5115322;28;20040;-70
2021/08/30 01:52:44;;;;;;;8.65;7.43;;;;;;;13.83;100.00;99629.19;5115515;28;20043;-70
2021/08/30 01:55:17;;;;;;;8.48;6.90;;;;;;;13.84;100.00;99628.19;5115027;28;20047;-70
2021/08/30 02:00:44;;;;;;;8.65;7.15;;;;;;;13.91;100.00;99624.03;5115494;28;20116;-70
2021/08/30 02:03:16;;;;;;;8.13;6.77;;;;;;;14.04;100.00;99627.38;5115006;28;20088;-71
2021/08/30 02:05:47;;;;;;;9.52;6.90;;;;;;;14.01;100.00;99624.97;5115179;28;20630;-70
2021/08/30 02:08:16;;;;;;;9.48;7.60;;;;;;;14.10;100.00;99626.88;5114872;28;20051;-70
2021/08/30 02:10:51;;;;;;;10.32;8.05;;;;;;;14.04;100.00;99625.53;5115347;28;20093;-74
2021/08/30 02:13:22;;;;;;;8.90;7.50;;;;;;;13.95;100.00;99623.63;5114765;28;20039;-75
2021/08/30 02:15:50;;;;;;;9.70;8.02;;;;;;;13.93;100.00;99625.59;5115597;28;20039;-75
2021/08/30 02:18:25;;;;;;;8.75;7.28;;;;;;;13.98;100.00;99625.19;5114871;28;20378;-74
2021/08/30 02:21:01;;;;;;;9.70;7.40;;;;;;;13.83;100.00;99621.97;5115131;28;20078;-74
2021/08/30 02:23:35;;;;;;;10.13;7.57;;;;;;;13.90;100.00;99623.19;5115300;28;20047;-70
2021/08/30 02:26:11;;;;;;;10.18;7.50;;;;;;;13.96;100.00;99621.78;5114741;28;20044;-70
2021/08/30 02:28:42;;;;;;;9.90;7.60;;;;;;;13.95;100.00;99623.63;5114912;28;20070;-70
2021/08/30 02:31:14;;;;;;;9.02;7.15;;;;;;;13.87;100.00;99618.06;5114701;28;20044;-75
2021/08/30 02:33:45;;;;;;;10.60;7.57;;;;;;;13.88;100.00;99621.59;5114879;28;20054;-74
2021/08/30 02:36:14;;;;;;;10.70;7.95;;;;;;;13.87;100.00;99623.41;5114340;28;20043;-74
2021/08/30 02:38:43;;;;;;;10.60;7.82;;;;;;;13.79;100.00;99614.31;5114507;28;20044;-75
2021/08/30 02:41:13;;;;;;;10.93;7.90;;;;;;;13.74;100.00;99612.03;5113934;28;20048;-75
2021/08/30 02:43:41;;;;;;;10.20;8.10;;;;;;;13.81;100.00;99623.09;5114702;28;20416;-75
2021/08/30 02:46:10;;;;;;;10.45;8.02;;;;;;;13.74;100.00;99620.91;5114422;28;20043;-76
2021/08/30 02:48:44;;;;;;;9.82;7.68;;;;;;;13.80;100.00;99616.00;5114754;28;20101;-75
2021/08/30 02:51:14;;;;;;;11.13;8.05;;;;;;;13.76;100.00;99615.44;5112974;28;20139;-75
2021/08/30 02:53:45;;;;;;;9.70;7.78;;;;;;;13.71;100.00;99623.00;5114178;28;20051;-69
2021/08/30 02:56:14;;;;;;;11.75;8.32;;;;;;;13.74;100.00;99618.25;5113969;28;20404;-70
2021/08/30 02:58:43;;;;;;;10.40;7.90;;;;;;;13.77;100.00;99610.91;5114466;28;20051;-71
2021/08/30 03:01:12;;;;;;;10.07;7.88;;;;;;;13.71;100.00;99613.16;5113826;28;20043;-70
2021/08/30 03:03:41;;;;;;;9.88;8.00;;;;;;;13.69;100.00;99609.72;5113460;28;20491;-70
2021/08/30 03:06:10;;;;;;;10.20;7.45;;;;;;;13.68;100.00;99613.38;5113976;28;20050;-70
2021/08/30 03:08:41;;;;;;;11.07;8.02;;;;;;;13.67;100.00;99609.00;5114013;28;20044;-70
2021/08/30 03:11:15;;;;;;;9.65;7.60;;;;;;;13.70;100.00;99613.25;5113999;28;20070;-70
2021/08/30 03:13:47;;;;;;;10.73;7.32;;;;;;;13.59;100.00;99619.50;5114457;28;20052;-69
2021/08/30 03:16:20;;;;;;;10.32;7.60;;;;;;;13.62;100.00;99613.06;5113671;28;20484;-73
2021/08/30 03:18:49;;;;;;;8.60;6.85;;;;;;;13.57;100.00;99621.47;5113808;28;20047;-73
2021/08/30 03:21:18;;;;;;;11.20;8.65;;;;;;;13.52;100.00;99618.31;5113692;28;20484;-74
2021/08/30 03:23:48;;;;;;;11.15;8.65;;;;;;;13.47;100.00;99615.16;5113760;28;20074;-74
2021/08/30 03:26:17;;;;;;;10.02;7.88;;;;;;;13.46;100.00;99616.13;5113624;28;20051;-74
2021/08/30 03:28:48;;;;;;;10.70;8.38;;;;;;;13.44;100.00;99616.28;5113666;28;20089;-74
2021/08/30 03:31:16;;;;;;;10.00;8.23;;;;;;;13.56;100.00;99627.78;5113252;28;20044;-71
2021/08/30 03:33:45;;;;;;;9.90;7.60;;;;;;;13.45;100.00;99617.13;5113760;28;20078;-71
2021/08/30 03:36:14;;;;;;;13.20;9.43;;;;;;;13.41;100.00;99621.00;5113270;28;20040;-71
2021/08/30 03:38:44;;;;;;;10.40;8.43;;;;;;;13.36;100.00;99633.94;5113961;28;20043;-70
2021/08/30 03:41:18;;;;;;;11.65;9.15;;;;;;;13.23;100.00;99625.22;5112966;28;20489;-73
2021/08/30 03:43:47;;;;;;;12.57;9.10;;;;;;;13.26;100.00;99630.31;5113659;28;20063;-73
2021/08/30 03:46:15;;;;;;;12.63;8.73;;;;;;;13.18;100.00;99633.56;5113274;28;20072;-71
2021/08/30 03:48:46;;;;;;;12.73;9.70;;;;;;;13.24;100.00;99642.97;5113459;28;20485;-71
2021/08/30 03:51:15;;;;;;;14.38;10.30;;;;;;;13.22;100.00;99642.22;5113086;28;20100;-71
2021/08/30 03:53:48;;;;;;;13.35;9.77;;;;;;;13.13;100.00;99643.81;5113479;28;20047;-71
2021/08/30 03:56:18;;;;;;;14.27;11.00;;;;;;;13.10;100.00;99644.03;5112911;28;20044;-74
2021/08/30 03:58:51;;;;;;;13.70;9.40;;;;;;;13.11;100.00;99649.25;5113830;28;20046;-74
2021/08/30 04:01:24;;;;;;;13.07;10.27;;;;;;;13.06;100.00;99648.78;5112975;28;20051;-74
2021/08/30 04:03:58;;;;;;;12.43;10.52;;;;;;;13.04;100.00;99648.06;5113306;28;20071;-74
2021/08/30 04:06:29;;;;;;;14.20;11.30;;;;;;;13.03;100.00;99648.19;5112911;28;20044;-75
2021/08/30 04:08:58;;;;;;;14.32;9.25;;;;;;;13.01;100.00;99656.31;5113539;28;20054;-70
2021/08/30 04:11:31;;;;;;;13.52;10.95;;;;;;;12.91;100.00;99650.00;5112987;28;20399;-71
2021/08/30 04:14:01;;;;;;;13.23;11.63;;;;;;;12.91;100.00;99650.00;5113258;28;20051;-71
2021/08/30 04:16:29;;;;;;;13.73;10.73;;;;;;;13.12;100.00;99653.69;5116713;28;20040;-74
2021/08/30 04:18:58;;;;;;;13.27;11.05;;;;;;;13.20;100.00;99657.56;5117511;28;20043;-74
2021/08/30 04:21:26;;;;;;;15.85;11.70;;;;;;;13.16;100.00;99655.13;5116889;28;20040;-74
2021/08/30 04:23:59;;;;;;;14.30;11.15;;;;;;;13.20;100.00;99646.84;5117205;28;20035;-74
2021/08/30 04:26:31;;;;;;;15.02;11.88;;;;;;;13.10;100.00;99660.09;5117177;28;20047;-74
2021/08/30 04:28:59;;;;;;;16.17;12.20;;;;;;;13.08;100.00;99657.56;5117017;28;20044;-73
2021/08/30 04:31:27;;;;;;;15.13;12.32;;;;;;;13.13;100.00;99655.38;5116645;28;20043;-73
2021/08/30 04:33:56;;;;;;;13.68;11.55;;;;;;;13.23;100.00;99654.66;5116972;28;20040;-74
2021/08/30 04:36:26;;;;;;;15.23;11.93;;;;;;;13.34;100.00;99652.81;5116614;28;20055;-73
2021/08/30 04:38:54;;;;;;;14.30;11.38;;;;;;;13.48;100.00;99661.56;5117226;28;20055;-72
2021/08/30 04:41:23;;;;;;;14.48;11.57;;;;;;;13.50;100.00;99665.81;5116371;28;20052;-72
2021/08/30 04:43:53;;;;;;;13.18;11.00;;;;;;;13.57;100.00;99669.69;5116729;28;20040;-72
2021/08/30 04:46:21;;;;;;;14.13;11.02;;;;;;;13.59;100.00;99677.59;5116720;28;20097;-67
2021/08/30 04:48:49;;;;;;;13.77;11.13;;;;;;;13.66;100.00;99674.28;5117040;28;20396;-67
2021/08/30 04:51:18;;;;;;;14.00;11.02;;;;;;;13.81;100.00;99684.75;5116282;28;20047;-70
2021/08/30 04:53:46;;;;;;;13.90;11.00;;;;;;;13.91;100.00;99672.28;5116569;28;20043;-70
2021/08/30 04:56:14;;;;;;;14.38;10.45;;;;;;;13.95;100.00;99674.56;5116268;28;20122;-71
2021/08/30 04:58:43;;;;;;;11.90;10.23;;;;;;;14.00;100.00;99668.84;5116582;28;20058;-71
2021/08/30 05:01:12;;;;;;;14.80;10.73;;;;;;;14.15;98.83;99680.94;5116334;28;20089;-71
2021/08/30 05:03:41;;;;;;;12.50;10.48;;;;;;;14.19;98.82;99685.09;5116658;28;20039;-71
2021/08/30 05:06:09;;;;;;;14.02;10.45;;;;;;;14.32;98.45;99683.06;5115937;28;20040;-71
2021/08/30 05:08:47;;;;;;;14.13;10.35;;;;;;;14.26;98.45;99678.22;5116475;28;20054;-71
2021/08/30 05:11:15;;;;;;;15.23;10.02;;;;;;;14.28;98.01;99681.63;5116159;28;20038;-70
2021/08/30 05:13:43;;;;;;;12.00;10.27;;;;;;;14.12;98.80;99675.84;5116233;28;20051;-66
2021/08/30 05:16:17;;;;;;;14.13;10.38;;;;;;;14.02;99.59;99674.91;5115982;28;20476;-71
2021/08/30 05:18:47;;;;;;;12.07;9.45;;;;;;;14.25;98.43;99671.16;5116068;28;20075;-71
2021/08/30 05:21:16;;;;;;;13.45;9.55;;;;;;;14.43;97.68;99670.56;5115593;28;20043;-71
2021/08/30 05:23:44;;;;;;;12.73;9.95;;;;;;;14.67;96.37;99664.94;5116059;28;20047;-70
2021/08/30 05:26:12;;;;;;;11.55;8.95;;;;;;;14.87;94.74;99673.00;5115487;28;20507;-71
2021/08/30 05:28:40;;;;;;;12.85;9.77;;;;;;;14.74;95.48;99677.72;5115726;28;20066;-70
2021/08/30 05:31:09;;;;;;;11.13;9.30;;;;;;;14.73;95.77;99681.38;5115876;28;20035;-71
2021/08/30 05:33:38;;;;;;;11.45;9.60;;;;;;;14.70;95.90;99673.59;5115603;27;20044;-70
2021/08/30 05:36:07;;;;;;;13.48;9.95;;;;;;;14.67;96.36;99676.56;5115898;28;20039;-73
2021/08/30 05:38:35;;;;;;;11.07;9.40;;;;;;;14.82;95.38;99672.53;5116113;28;20044;-74
2021/08/30 05:41:03;;;;;;;10.65;9.43;;;;;;;14.80;95.65;99670.97;5115640;28;20051;-74
2021/08/30 05:43:33;;;;;;;11.98;10.05;;;;;;;14.79;95.58;99667.44;5115489;28;20450;-74
2021/08/30 05:46:01;;;;;;;11.70;9.00;;;;;;;14.94;94.61;99662.56;5115896;28;20043;-74
2021/08/30 05:48:30;;;;;;;10.43;8.20;;;;;;;14.74;94.17;99658.91;5114255;28;20097;-70
2021/08/30 05:50:59;;;;;;;14.60;10.55;;;;;;;14.78;95.34;99668.44;5115774;28;20040;-71
2021/08/30 05:53:27;;;;;;;12.55;10.05;;;;;;;14.68;95.85;99672.91;5115456;28;20089;-71
2021/08/30 05:55:55;;;;;;;13.38;10.30;;;;;;;14.82;94.92;99675.22;5104465;28;20036;-72
2021/08/30 05:58:24;;;;;;;16.17;11.20;;;;;;;14.91;94.46;99673.56;5114784;28;20093;-71
2021/08/30 06:00:52;;;;;;;11.95;9.88;;;;;;;15.19;92.95;99666.63;5114772;28;20465;-71
2021/08/30 06:03:20;;;;;;;13.25;10.15;;;;;;;15.31;92.51;99670.06;5113492;28;20047;-71
2021/08/30 06:05:49;;;;;;;12.80;9.98;;;;;;;15.49;91.22;99659.50;5115039;28;20040;-69
2021/08/30 06:08:23;;;;;;;12.55;9.43;;;;;;;15.44;90.71;99666.16;5115108;28;20071;-69
2021/08/30 06:10:51;;;;;;;11.20;9.48;;;;;;;15.71;89.99;99661.97;5115331;28;20035;-68
2021/08/30 06:13:22;;;;;;;12.05;9.82;;;;;;;15.82;89.07;99664.53;5114567;28;20442;-70
2021/08/30 06:15:53;;;;;;;10.68;9.57;;;;;;;16.30;86.89;99671.75;5115154;28;20043;-70
2021/08/30 06:18:21;;;;;;;11.85;9.95;;;;;;;16.49;85.81;99669.06;5114821;28;20043;-68
2021/08/30 06:20:50;;;;;;;10.88;9.52;;;;;;;17.11;82.01;99670.34;5114859;28;20435;-71
2021/08/30 06:23:19;;;;;;;11.90;9.60;;;;;;;17.63;79.50;99669.78;5114569;28;20102;-69
2021/08/30 06:25:51;;;;;;;11.57;8.80;;;;;;;17.64;78.16;99666.94;5114714;28;20385;-69
2021/08/30 06:28:19;;;;;;;11.65;9.35;;;;;;;17.93;77.44;99669.47;5114195;28;20047;-69
2021/08/30 06:30:47;;;;;;;11.25;8.90;;;;;;;17.77;77.81;99677.41;5114438;28;20442;-69
2021/08/30 06:33:15;;;;;;;9.60;8.57;;;;;;;18.31;74.49;99678.25;5114127;28;20077;-68
2021/08/30 06:35:43;;;;;;;11.80;8.18;;;;;;;18.50;74.55;99674.53;5114458;28;20571;-70
2021/08/30 06:38:12;;;;;;;12.85;8.50;;;;;;;18.66;74.00;99672.00;5115013;28;20039;-70
2021/08/30 06:40:44;;;;;;;9.10;7.75;;;;;;;18.58;72.81;99672.75;5114306;28;20043;-70
2021/08/30 06:43:12;;;;;;;10.13;8.18;;;;;;;18.06;75.28;99676.34;5114692;28;20100;-67
2021/08/30 06:45:40;;;;;;;9.60;7.38;;;;;;;17.77;76.94;99681.97;5114583;28;20404;-69
2021/08/30 06:48:08;;;;;;;10.75;8.43;;;;;;;17.21;79.45;99686.47;5114413;28;20036;-70
2021/08/30 06:50:36;;;;;;;10.23;7.72;;;;;;;17.36;78.18;99684.13;5114097;28;20040;-67
2021/08/30 06:53:04;;;;;;;10.50;8.52;;;;;;;17.08;79.73;99683.25;5114062;28;20442;-67
2021/08/30 06:55:33;;;;;;;9.82;8.02;;;;;;;17.28;79.21;99681.34;5114143;28;20062;-67
2021/08/30 06:58:03;;;;;;;13.20;8.93;;;;;;;17.24;79.51;99680.78;5114036;28;20496;-66
2021/08/30 07:00:32;;;;;;;10.85;7.90;;;;;;;16.93;80.35;99677.50;5113907;28;20051;-67
2021/08/30 07:03:00;;;;;;;10.00;8.30;;;;;;;16.55;82.31;99673.88;5114145;28;20503;-67
2021/08/30 07:05:32;;;;;;;11.25;9.30;;;;;;;16.41;83.02;99677.03;5113796;28;20040;-67
2021/08/30 07:08:01;;;;;;;10.27;8.73;;;;;;;16.61;81.94;99672.47;5114307;28;20044;-66
2021/08/30 07:10:30;;;;;;;12.38;8.30;;;;;;;16.59;83.16;99672.56;5112581;28;20051;-66
2021/08/30 07:12:58;;;;;;;11.35;8.90;;;;;;;16.65;81.77;99673.00;5114108;28;20067;-66
2021/08/30 07:15:28;;;;;;;11.88;8.52;;;;;;;16.83;80.88;99676.69;5113809;28;20089;-66
2021/08/30 07:17:56;;;;;;;10.13;8.30;;;;;;;16.86;80.90;99688.00;5113872;28;20047;-66
2021/08/30 07:20:29;;;;;;;9.32;7.38;;;;;;;16.95;80.44;99685.44;5114398;28;20039;-67
2021/08/30 07:22:57;;;;;;;9.98;8.10;;;;;;;16.95;80.32;99683.59;5113652;28;20408;-66
2021/08/30 07:25:26;;;;;;;10.00;8.20;;;;;;;17.03;80.38;99691.78;5113260;28;20043;-66
2021/08/30 07:27:54;;;;;;;10.05;8.52;;;;;;;17.20;80.08;99683.94;5113796;28;20048;-66
2021/08/30 07:30:22;;;;;;;9.60;8.40;;;;;;;17.11;79.59;99700.00;5113578;28;20594;-66
2021/08/30 07:32:52;;;;;;;9.85;7.40;;;;;;;17.13;78.81;99700.69;5113805;28;20047;-66
2021/08/30 07:35:21;;;;;;;11.73;7.88;;;;;;;17.15;80.40;99701.38;5113560;28;20442;-66
2021/08/30 07:37:52;;;;;;;8.75;6.32;;;;;;;17.00;79.82;99700.16;5113983;28;20046;-66
2021/08/30 07:40:22;;;;;;;10.20;7.60;;;;;;;16.79;81.44;99708.44;5113309;28;20043;-68
2021/08/30 07:42:51;;;;;;;10.25;8.48;;;;;;;16.82;82.40;99710.00;5113280;28;20055;-68
2021/08/30 07:45:19;;;;;;;10.50;7.47;;;;;;;16.85;81.76;99704.31;5113158;28;20036;-68
2021/08/30 07:47:48;;;;;;;10.38;7.63;;;;;;;16.97;81.67;99711.22;5113494;28;20423;-67
2021/08/30 07:50:19;;;;;;;12.35;8.40;;;;;;;17.17;81.24;99702.06;5112948;28;20048;-66
2021/08/30 07:52:47;;;;;;;9.38;7.38;;;;;;;17.12;80.74;99707.06;5113415;28;20047;-66
2021/08/30 07:55:17;;;;;;;11.73;7.97;;;;;;;17.25;80.95;99709.44;5113304;28;20044;-67
2021/08/30 07:57:46;;;;;;;8.77;7.47;;;;;;;17.29;80.44;99705.44;5113142;28;20488;-67
2021/08/30 08:00:15;;;;;;;9.15;6.85;;;;;;;17.66;80.70;99708.13;5113271;28;20043;-66
2021/08/30 08:02:43;;;;;;;8.98;6.20;;;;;;;17.71;79.19;99710.38;5113553;28;20338;-67
2021/08/30 08:05:12;;;;;;;9.43;6.45;;;;;;;17.86;79.07;99716.13;5113159;28;20031;-67
2021/08/30 08:07:41;;;;;;;8.00;6.18;;;;;;;18.11;76.85;99718.06;5112786;28;20048;-67
2021/08/30 08:10:10;;;;;;;7.38;5.68;;;;;;;17.79;77.27;99717.72;5112854;28;20047;-67
2021/08/30 08:12:38;;;;;;;8.38;6.55;;;;;;;17.72;78.06;99712.06;5112951;28;20047;-68
2021/08/30 08:15:10;;;;;;;9.25;6.30;;;;;;;17.78;78.72;99714.19;5113303;28;20373;-67
2021/08/30 08:17:38;;;;;;;7.80;6.00;;;;;;;17.95;77.23;99723.28;5113218;28;20046;-68
2021/08/30 08:20:08;;;;;;;9.13;5.57;;;;;;;18.02;76.64;99725.22;5113149;28;20036;-68
2021/08/30 08:22:45;;;;;;;10.45;5.57;;;;;;;17.93;77.29;99718.03;5113038;28;20047;-67
2021/08/30 08:25:13;;;;;;;7.15;5.13;;;;;;;18.18;76.13;99721.84;5113617;28;20096;-67
2021/08/30 08:27:42;;;;;;;9.52;4.85;;;;;;;18.18;74.54;99724.53;5113169;28;20092;-68
2021/08/30 08:30:11;;;;;;;6.55;4.65;;;;;;;18.23;75.26;99727.63;5113234;28;20044;-68
2021/08/30 08:32:41;;;;;;;6.82;4.63;;;;;;;18.29;73.81;99728.88;5112813;28;20131;-67
2021/08/30 08:35:10;;;;;;;6.20;4.60;;;;;;;18.31;73.10;99735.78;5112975;28;20040;-67
2021/08/30 08:37:39;;;;;;;8.35;4.28;;;;;;;18.15;73.60;99741.06;5112707;28;20435;-67
2021/08/30 08:40:12;;;;;;;6.18;4.75;;;;;;;18.20;72.42;99738.72;5113208;28;20044;-67
2021/08/30 08:42:43;;;;;;;6.07;3.83;;;;;;;18.09;72.50;99744.34;5112741;28;20134;-67
2021/08/30 08:45:14;;;;;;;6.03;4.15;;;;;;;18.17;71.70;99749.84;5113127;28;20051;-67
2021/08/30 08:47:46;;;;;;;6.25;4.40;;;;;;;18.06;72.23;99735.72;5112726;28;20043;-66
2021/08/30 08:50:19;;;;;;;6.45;3.92;;;;;;;18.31;71.56;99740.34;5113114;28;20050;-67
2021/08/30 08:52:49;;;;;;;6.18;4.25;;;;;;;18.47;71.39;99743.22;5113138;28;20039;-67
2021/08/30 08:55:19;;;;;;;6.93;3.75;;;;;;;18.42;70.99;99744.66;5112719;28;20070;-67
2021/08/30 08:57:52;;;;;;;6.07;4.03;;;;;;;18.62;72.42;99742.66;5112601;28;20126;-67
2021/08/30 09:00:21;;;;;;;;;;;;;;;18.81;71.37;99737.09;5113313;28;20096;-67
2021/08/30 09:02:51;;;;;;;5.95;4.00;;;;;;;18.93;69.34;99749.38;5115199;28;19919;-67
2021/08/30 09:05:23;;;;;;;5.28;3.70;;;;;;;19.05;69.63;99744.53;5116355;28;20050;-67
2021/08/30 09:07:51;;;;;;;5.18;3.95;;;;;;;19.02;70.07;99750.28;5116615;28;20048;-68
2021/08/30 09:10:25;;;;;;;7.80;3.90;;;;;;;19.08;69.69;99741.50;5116520;28;20096;-68
2021/08/30 09:13:05;;;;;;;5.68;3.70;;;;;;;19.10;68.33;99747.59;5116648;28;20126;-68
2021/08/30 09:15:40;;;;;;;5.72;3.97;;;;;;;19.10;69.97;99747.59;5116221;28;20039;-68
2021/08/30 09:18:12;;;;;;;5.05;3.40;;;;;;;19.19;68.87;99743.09;5116680;28;20044;-67
2021/08/30 09:20:44;;;;;;;4.90;3.22;;;;;;;19.26;68.88;99755.81;5115805;28;20035;-68
2021/08/30 09:23:15;;;;;;;4.95;2.88;;;;;;;19.24;67.23;99748.88;5116512;28;20093;-67
2021/08/30 09:25:45;;;;;;;5.63;3.20;;;;;;;19.25;67.07;99746.00;5116202;28;20075;-67
2021/08/30 09:28:13;;;;;;;5.57;3.25;;;;;;;19.36;67.95;99748.44;5116291;28;20044;-67
2021/08/30 09:30:41;;;;;;;3.67;2.30;;;;;;;19.38;65.26;99759.94;5115862;28;20092;-68
2021/08/30 09:33:15;;;;;;;3.55;2.40;;;;;;;19.32;65.41;99763.31;5116287;28;20394;-67
2021/08/30 09:35:56;;;;;;;5.55;3.20;;;;;;;19.37;66.19;99760.94;5115834;28;20046;-67
2021/08/30 09:38:27;;;;;;;6.30;3.97;;;;;;;19.20;67.53;99769.13;5115882;28;20040;-68
2021/08/30 09:41:10;;;;;;;4.80;3.40;;;;;;;19.13;67.86;99764.38;5115890;28;20050;-67
2021/08/30 09:43:39;;;;;;;4.53;2.85;;;;;;;19.39;65.69;99767.03;5115602;28;20396;-67
2021/08/30 09:46:09;;;;;;;5.00;2.97;;;;;;;19.70;64.89;99766.56;5115677;28;20040;-67
2021/08/30 09:48:38;;;;;;;5.70;3.30;;;;;;;19.55;64.95;99768.16;5115675;28;20051;-67
2021/08/30 09:51:09;;;;;;;5.55;3.00;;;;;;;19.56;65.29;99776.13;5115777;28;20035;-67
2021/08/30 09:53:40;;;;;;;5.35;2.60;;;;;;;19.67;63.88;99767.72;5115156;28;20442;-68
2021/08/30 09:56:11;;;;;;;5.80;2.58;;;;;;;19.64;62.17;99767.22;5115409;28;20074;-67
2021/08/30 09:58:44;;;;;;;5.40;3.03;;;;;;;19.77;62.73;99781.13;5115039;28;20488;-67
2021/08/30 10:01:19;;;;;;;4.75;2.45;;;;;;;19.84;62.71;99774.06;5115295;28;20050;-67
2021/08/30 10:03:48;;;;;;;5.90;2.60;;;;;;;19.85;61.29;99764.94;5115210;28;20086;-67
2021/08/30 10:06:19;;;;;;;3.78;2.25;;;;;;;19.87;61.89;99765.59;5115331;28;20043;-67
2021/08/30 10:08:47;;;;;;;5.40;2.85;;;;;;;19.70;62.54;99769.28;5114859;28;20397;-67
2021/08/30 10:11:18;;;;;;;4.40;2.47;;;;;;;19.76;62.91;99760.50;5115121;28;20039;-67
2021/08/30 10:13:46;;;;;;;3.55;2.45;;;;;;;19.92;61.51;99768.69;5114751;28;20043;-67
2021/08/30 10:16:14;;;;;;;3.70;2.60;;;;;;;20.05;60.80;99761.94;5114905;28;20043;-67
2021/08/30 10:18:48;;;;;;;4.10;2.58;;;;;;;20.18;60.71;99756.94;5114829;28;20480;-67
2021/08/30 10:21:18;;;;;;;3.50;2.42;;;;;;;20.43;59.10;99747.84;5114728;28;20101;-67
2021/08/30 10:23:48;;;;;;;4.25;2.60;;;;;;;20.58;58.97;99751.59;5114843;28;20032;-67
2021/08/30 10:26:23;;;;;;;4.20;2.70;;;;;;;20.85;58.43;99746.84;5114945;28;20048;-67
2021/08/30 10:28:51;;;;;;;3.55;2.20;;;;;;;20.70;57.34;99756.66;5114656;28;20039;-67
2021/08/30 10:31:22;;;;;;;3.42;2.38;;;;;;;20.49;58.36;99747.19;5114920;28;20054;-67
2021/08/30 10:33:53;;;;;;;4.28;2.15;;;;;;;20.56;57.89;99742.78;5114401;28;20036;-66
2021/08/30 10:36:23;;;;;;;3.72;2.30;;;;;;;20.68;57.42;99756.00;5115030;28;20573;-68
2021/08/30 10:39:03;;;;;;;3.30;2.08;;;;;;;20.61;56.44;99746.84;5114441;28;20506;-67
2021/08/30 10:41:38;;;;;;;4.38;2.28;;;;;;;20.71;55.31;99744.81;5114541;28;20048;-67
2021/08/30 10:44:12;;;;;;;3.92;2.17;;;;;;;20.75;54.19;99740.72;5114458;28;20545;-68
2021/08/30 10:46:42;;;;;;;3.47;2.05;;;;;;;20.63;54.34;99742.09;5114058;28;20036;-68
2021/08/30 10:49:17;;;;;;;3.67;2.22;;;;;;;20.74;54.17;99749.88;5114236;28;20035;-67
2021/08/30 10:51:47;;;;;;;3.80;2.38;;;;;;;20.67;54.29;99751.59;5114144;28;20089;-67
2021/08/30 10:54:18;;;;;;;3.45;2.20;;;;;;;20.75;55.02;99748.84;5114307;28;20067;-67
2021/08/30 10:56:58;;;;;;;5.00;2.58;;;;;;;20.95;54.48;99749.38;5112575;28;20075;-67
2021/08/30 10:59:28;;;;;;;8.60;2.47;;;;;;;21.02;53.34;99753.94;5114517;28;20039;-67
2021/08/30 11:01:59;;;;;;;4.80;2.40;;;;;;;20.94;52.62;99740.41;5114155;28;20036;-68
2021/08/30 11:04:33;;;;;;;5.70;2.55;;;;;;;21.11;52.11;99752.91;5114332;28;20401;-68
2021/08/30 11:07:02;;;;;;;4.45;2.58;;;;;;;21.22;50.11;99756.28;5114034;28;20114;-68
2021/08/30 11:09:31;;;;;;;3.50;2.50;;;;;;;21.24;48.99;99754.25;5113862;28;20066;-73
2021/08/30 11:12:09;;;;;;;4.78;2.13;;;;;;;21.34;48.45;99752.22;5113966;28;20097;-68
2021/08/30 11:14:38;;;;;;;6.43;2.50;;;;;;;21.22;47.48;99753.56;5113667;28;20122;-68
2021/08/30 11:17:12;;;;;;;4.25;2.45;;;;;;;21.28;48.33;99758.34;5112896;28;20048;-68
2021/08/30 11:19:41;;;;;;;3.92;2.60;;;;;;;21.47;47.38;99763.38;5113442;28;20044;-68
2021/08/30 11:22:09;;;;;;;4.13;2.40;;;;;;;21.66;47.42;99752.09;5112557;28;20093;-67
2021/08/30 11:24:40;;;;;;;5.15;2.55;;;;;;;21.76;47.37;99748.34;5113179;28;20044;-68
2021/08/30 11:27:13;;;;;;;;;;;;;;;21.69;47.10;99754.47;5114272;28;20538;-67
2021/08/30 11:29:43;;;;;;;3.78;2.67;;;;;;;21.86;46.81;99748.97;5113641;28;19941;-68
2021/08/30 11:32:14;;;;;;;3.63;2.42;;;;;;;21.68;47.91;99749.22;5113725;28;20451;-68
2021/08/30 11:34:43;;;;;;;4.82;2.90;;;;;;;21.66;47.97;99753.97;5113599;28;20050;-67
2021/08/30 11:37:22;;;;;;;5.18;2.90;;;;;;;21.76;48.57;99751.91;5113825;28;20113;-68
2021/08/30 11:39:51;;;;;;;5.35;3.20;;;;;;;21.65;48.10;99761.28;5113504;28;20050;-68
2021/08/30 11:42:23;;;;;;;4.50;3.42;;;;;;;21.36;48.59;99750.19;5112287;28;20134;-67
2021/08/30 11:44:55;;;;;;;4.05;2.55;;;;;;;21.60;48.03;99735.66;5113240;28;20069;-68